EA3CTN-13 Weather Reports


Display with metric or nautical units.
time (UTC)temp
F
wind
direction
speed
MPH
gust
MPH
rain 1hr
in
rain 24hr
in
rain mn
in
humidity
%
barometer
mb
20220520185808 82 0.0 0.0 0.00 0.00 0.00 49 1022.2
20220520185008 82 0.0 0.0 0.00 0.00 0.00 51 1022.3
20220520184208 82 0.0 0.0 0.00 0.00 0.00 52 1022.2
20220520183408 82 0.0 0.0 0.00 0.00 0.00 51 1022.2
20220520182608 83 0.0 0.0 0.00 0.00 0.00 50 1022.3
20220520181808 83 0.0 0.0 0.00 0.00 0.00 50 1022.3
20220520181008 83 0.0 0.0 0.00 0.00 0.00 49 1022.3
20220520180208 84 0.0 0.0 0.00 0.00 0.00 48 1022.3
20220520175408 84 0.0 0.0 0.00 0.00 0.00 47 1022.2
20220520174608 85 0.0 0.0 0.00 0.00 0.00 47 1022.1
20220520173808 85 0.0 0.0 0.00 0.00 0.00 47 1022.1
20220520173008 85 0.0 0.0 0.00 0.00 0.00 45 1022.2
20220520172208 86 0.0 0.0 0.00 0.00 0.00 43 1022.1
20220520171408 89 0.0 0.0 0.00 0.00 0.00 39 1022.1
20220520170608 93 0.0 0.0 0.00 0.00 0.00 34 1021.9
20220520165808 101 0.0 0.0 0.00 0.00 0.00 28 1021.8
20220520165008 100 0.0 0.0 0.00 0.00 0.00 29 1021.9
20220520164208 100 0.0 0.0 0.00 0.00 0.00 30 1021.9
20220520163408 100 0.0 0.0 0.00 0.00 0.00 30 1022.0
20220520162608 96 0.0 0.0 0.00 0.00 0.00 33 1022.2
20220520161808 93 0.0 0.0 0.00 0.00 0.00 36 1022.1
20220520161008 93 0.0 0.0 0.00 0.00 0.00 35 1022.2
20220520160208 90 0.0 0.0 0.00 0.00 0.00 40 1022.4
20220520155408 84 0.0 0.0 0.00 0.00 0.00 46 1022.5
20220520154608 81 0.0 0.0 0.00 0.00 0.00 49 1022.6
20220520153808 81 0.0 0.0 0.00 0.00 0.00 51 1022.7
20220520153008 80 0.0 0.0 0.00 0.00 0.00 51 1022.8
20220520152208 80 0.0 0.0 0.00 0.00 0.00 51 1022.7
20220520151408 80 0.0 0.0 0.00 0.00 0.00 51 1022.9
20220520150608 80 0.0 0.0 0.00 0.00 0.00 51 1022.9
20220520145808 80 0.0 0.0 0.00 0.00 0.00 51 1022.9
20220520145008 80 0.0 0.0 0.00 0.00 0.00 52 1022.9
20220520144208 79 0.0 0.0 0.00 0.00 0.00 51 1022.9
20220520143408 80 0.0 0.0 0.00 0.00 0.00 51 1023.0
20220520142608 79 0.0 0.0 0.00 0.00 0.00 51 1023.0
20220520141808 79 0.0 0.0 0.00 0.00 0.00 51 1023.1
20220520141008 79 0.0 0.0 0.00 0.00 0.00 51 1023.3
20220520140208 79 0.0 0.0 0.00 0.00 0.00 51 1023.3
20220520135408 79 0.0 0.0 0.00 0.00 0.00 51 1023.4
20220520134608 79 0.0 0.0 0.00 0.00 0.00 51 1023.4
20220520133808 79 0.0 0.0 0.00 0.00 0.00 51 1023.5
20220520133008 79 0.0 0.0 0.00 0.00 0.00 51 1023.5
20220520132208 80 0.0 0.0 0.00 0.00 0.00 50 1023.6
20220520131408 80 0.0 0.0 0.00 0.00 0.00 50 1023.5
20220520130608 80 0.0 0.0 0.00 0.00 0.00 50 1023.6
20220520125808 80 0.0 0.0 0.00 0.00 0.00 51 1023.6
20220520125008 79 0.0 0.0 0.00 0.00 0.00 51 1023.6
20220520124208 79 0.0 0.0 0.00 0.00 0.00 51 1023.7
20220520123408 80 0.0 0.0 0.00 0.00 0.00 51 1023.8
20220520122608 80 0.0 0.0 0.00 0.00 0.00 52 1023.8
20220520121808 80 0.0 0.0 0.00 0.00 0.00 52 1024.0
20220520121008 80 0.0 0.0 0.00 0.00 0.00 51 1023.9
20220520120208 80 0.0 0.0 0.00 0.00 0.00 51 1024.1
20220520115408 80 0.0 0.0 0.00 0.00 0.00 51 1024.1
20220520114608 80 0.0 0.0 0.00 0.00 0.00 51 1024.3
20220520113808 80 0.0 0.0 0.00 0.00 0.00 50 1024.2
20220520113008 80 0.0 0.0 0.00 0.00 0.00 51 1024.3
20220520112208 79 0.0 0.0 0.00 0.00 0.00 51 1024.3
20220520111408 79 0.0 0.0 0.00 0.00 0.00 50 1024.3
20220520110608 79 0.0 0.0 0.00 0.00 0.00 49 1024.4
20220520105808 79 0.0 0.0 0.00 0.00 0.00 49 1024.5
20220520105008 79 0.0 0.0 0.00 0.00 0.00 48 1024.5
20220520104208 79 0.0 0.0 0.00 0.00 0.00 49 1024.5
20220520103408 79 0.0 0.0 0.00 0.00 0.00 49 1024.5
20220520102608 79 0.0 0.0 0.00 0.00 0.00 49 1024.6
20220520101808 79 0.0 0.0 0.00 0.00 0.00 48 1024.7
20220520101008 79 0.0 0.0 0.00 0.00 0.00 47 1024.7
20220520100208 80 0.0 0.0 0.00 0.00 0.00 45 1024.6
20220520095408 81 0.0 0.0 0.00 0.00 0.00 44 1024.5
20220520094608 81 0.0 0.0 0.00 0.00 0.00 44 1024.6
20220520093808 81 0.0 0.0 0.00 0.00 0.00 43 1024.6
20220520093008 81 0.0 0.0 0.00 0.00 0.00 44 1024.5
20220520092208 81 0.0 0.0 0.00 0.00 0.00 43 1024.6
20220520091408 81 0.0 0.0 0.00 0.00 0.00 43 1024.7
20220520090608 81 0.0 0.0 0.00 0.00 0.00 42 1024.6
20220520085807 81 0.0 0.0 0.00 0.00 0.00 41 1024.6
20220520085008 81 0.0 0.0 0.00 0.00 0.00 41 1024.6
20220520084208 80 0.0 0.0 0.00 0.00 0.00 40 1024.6
20220520083408 80 0.0 0.0 0.00 0.00 0.00 39 1024.6
20220520082608 80 0.0 0.0 0.00 0.00 0.00 40 1024.6
20220520081808 80 0.0 0.0 0.00 0.00 0.00 39 1024.7